Time;durP1;ratioP1;P1;durP2;ratioP2;P2;SDS_P1;SDS_P2;PMS_P1;PMS_P2;Temp;Humidity;BMP_temperature;BMP_pressure;BME280_temperature;BME280_humidity;BME280_pressure;Samples;Min_cycle;Max_cycle;Signal;HPM_P1;HPM_P2
2022/09/19 00:01:15;;;;;;;0.60;0.60;;;;;;;14.39;100.00;149654.25;5071914;28;20184;-60
2022/09/19 00:03:44;;;;;;;0.40;0.40;;;;;;;14.39;100.00;149654.25;5071941;28;20192;-60
2022/09/19 00:06:13;;;;;;;1.67;1.67;;;;;;;14.24;100.00;149617.44;5072089;28;20552;-59
2022/09/19 00:08:42;;;;;;;0.87;0.87;;;;;;;14.27;100.00;149623.78;5072121;28;20184;-59
2022/09/19 00:11:10;;;;;;;0.53;0.53;;;;;;;14.26;100.00;149621.28;5071768;28;20188;-59
2022/09/19 00:13:44;;;;;;;0.60;0.60;;;;;;;14.33;100.00;149639.00;5070715;28;20709;-59
2022/09/19 00:16:12;;;;;;;0.53;0.53;;;;;;;14.16;100.00;149598.44;5071976;28;20636;-60
2022/09/19 00:18:40;;;;;;;0.50;0.47;;;;;;;14.34;100.00;149641.56;5071539;28;20231;-60
2022/09/19 00:21:06;;;;;;;1.90;0.40;;;;;;;14.21;100.00;149608.59;5071715;28;20184;-59
2022/09/19 00:26:19;;;;;;;0.40;0.40;;;;;;;14.34;100.00;149641.56;5071576;28;20179;-60
2022/09/19 00:28:46;;;;;;;0.33;0.33;;;;;;;14.39;100.00;149654.25;5071499;28;20220;-60
2022/09/19 00:31:18;;;;;;;0.30;0.30;;;;;;;14.43;100.00;149665.66;5071817;28;20211;-60
2022/09/19 00:33:46;;;;;;;0.77;0.50;;;;;;;14.32;100.00;149636.47;5071387;28;20184;-60
2022/09/19 00:36:13;;;;;;;0.50;0.50;;;;;;;14.36;100.00;149646.66;5071787;28;20670;-60
2022/09/19 00:38:40;;;;;;;1.33;0.40;;;;;;;14.39;100.00;149654.25;5071683;28;20563;-60
2022/09/19 00:41:08;;;;;;;0.57;0.47;;;;;;;14.25;100.00;149620.00;5071718;28;20189;-60
2022/09/19 00:43:49;;;;;;;0.50;0.50;;;;;;;14.18;100.00;149602.22;5071334;28;20191;-61
2022/09/19 00:46:18;;;;;;;0.60;0.40;;;;;;;14.21;100.00;149609.88;5070755;28;20188;-61
2022/09/19 00:48:51;;;;;;;0.67;0.40;;;;;;;13.86;100.00;149522.41;5071321;28;20704;-60
2022/09/19 00:51:31;;;;;;;3.77;0.50;;;;;;;13.94;100.00;149542.66;5071439;28;20294;-61
2022/09/19 00:54:01;;;;;;;0.50;0.50;;;;;;;13.86;100.00;149522.41;5071640;28;20238;-60
2022/09/19 00:56:29;;;;;;;6.43;0.40;;;;;;;13.80;100.00;149505.88;5071525;28;20232;-60
2022/09/19 00:58:59;;;;;;;2.00;0.50;;;;;;;13.72;100.00;149488.16;5071481;28;20575;-59
2022/09/19 01:01:28;;;;;;;1.53;0.67;;;;;;;13.75;100.00;149494.47;5071404;28;20189;-60
2022/09/19 01:03:55;;;;;;;0.50;0.50;;;;;;;13.66;100.00;149471.72;5071546;28;20551;-60
2022/09/19 01:06:39;;;;;;;0.50;0.50;;;;;;;13.62;100.00;149462.81;5071659;28;20195;-60
2022/09/19 01:09:22;;;;;;;0.53;0.50;;;;;;;13.66;100.00;149471.72;5071486;28;20189;-60
2022/09/19 01:12:03;;;;;;;0.50;0.50;;;;;;;13.61;100.00;149459.03;5071180;28;20310;-60
2022/09/19 01:14:46;;;;;;;0.53;0.50;;;;;;;13.46;100.00;149422.28;5071411;28;20627;-59
2022/09/19 01:17:19;;;;;;;0.50;0.50;;;;;;;13.45;100.00;149419.72;5071171;28;20262;-60
2022/09/19 01:20:15;;;;;;;0.50;0.50;;;;;;;13.24;100.00;149367.78;5071289;28;20305;-60
2022/09/19 01:22:56;;;;;;;1.03;0.50;;;;;;;13.37;100.00;149398.19;5058530;28;20196;-60
2022/09/19 01:25:31;;;;;;;0.53;0.50;;;;;;;13.39;100.00;149403.28;5071387;28;20540;-60
2022/09/19 01:28:11;;;;;;;0.60;0.60;;;;;;;13.40;100.00;149405.81;5071226;28;20188;-59
2022/09/19 01:30:42;;;;;;;3.50;0.83;;;;;;;13.41;100.00;149408.38;5071265;28;20536;-59
2022/09/19 01:33:17;;;;;;;0.60;0.60;;;;;;;13.38;100.00;149402.00;5071347;28;20181;-60
2022/09/19 01:35:47;;;;;;;0.80;0.80;;;;;;;13.28;100.00;149376.72;5070886;28;20214;-59
2022/09/19 01:38:21;;;;;;;0.63;0.60;;;;;;;13.25;100.00;149370.34;5071217;28;20208;-59
2022/09/19 01:40:49;;;;;;;0.50;0.50;;;;;;;13.06;100.00;149322.19;5071206;28;20812;-59
2022/09/19 01:43:19;;;;;;;0.50;0.50;;;;;;;13.27;100.00;149375.44;5071025;28;20188;-60
2022/09/19 01:45:47;;;;;;;0.73;0.70;;;;;;;13.24;100.00;149367.78;5070860;28;20196;-60
2022/09/19 01:48:19;;;;;;;0.53;0.53;;;;;;;13.25;100.00;149370.34;5071300;28;20635;-60
2022/09/19 01:51:00;;;;;;;1.07;0.60;;;;;;;13.24;100.00;149366.53;5071107;28;20189;-59
2022/09/19 01:53:40;;;;;;;0.67;0.67;;;;;;;13.19;100.00;149353.91;5070781;28;20187;-61
2022/09/19 01:56:11;;;;;;;3.50;0.70;;;;;;;13.16;100.00;149346.25;5070970;28;20236;-59
2022/09/19 01:58:48;;;;;;;1.43;0.77;;;;;;;13.06;100.00;149320.91;5073394;28;20191;-59
2022/09/19 02:01:23;;;;;;;2.10;0.70;;;;;;;12.91;100.00;149282.88;5074435;28;20180;-60
2022/09/19 02:03:54;;;;;;;0.60;0.60;;;;;;;12.82;100.00;149261.34;5074463;28;20685;-59
2022/09/19 02:06:30;;;;;;;0.90;0.90;;;;;;;12.71;100.00;149233.53;5074138;28;20204;-60
2022/09/19 02:09:03;;;;;;;2.00;0.70;;;;;;;12.67;100.00;149223.41;5074443;28;20555;-59
2022/09/19 02:11:31;;;;;;;0.70;0.70;;;;;;;12.76;100.00;149246.19;5074035;28;20258;-60
2022/09/19 02:14:07;;;;;;;0.80;0.80;;;;;;;12.70;100.00;149230.97;5074271;28;20185;-58
2022/09/19 02:16:37;;;;;;;2.00;0.80;;;;;;;12.74;100.00;149241.09;5073851;28;20207;-59
2022/09/19 02:19:09;;;;;;;0.80;0.80;;;;;;;12.78;100.00;149252.50;5074190;28;20189;-61
2022/09/19 02:21:48;;;;;;;0.77;0.60;;;;;;;12.58;100.00;149201.88;5073825;28;20189;-60
2022/09/19 02:24:19;;;;;;;0.80;0.80;;;;;;;12.51;100.00;149184.16;5074154;28;20655;-59
2022/09/19 02:26:48;;;;;;;0.63;0.63;;;;;;;12.21;100.00;149109.47;5073635;28;20217;-60
2022/09/19 02:29:19;;;;;;;1.17;0.90;;;;;;;12.09;100.00;149079.09;5073714;28;20185;-59
2022/09/19 02:31:46;;;;;;;1.20;1.07;;;;;;;12.15;100.00;149094.25;5073922;28;20647;-60
2022/09/19 02:34:14;;;;;;;1.80;1.13;;;;;;;12.04;100.00;149065.16;5073913;28;20276;-59
2022/09/19 02:36:46;;;;;;;1.70;0.80;;;;;;;11.83;100.00;149014.56;5073892;28;20220;-59
2022/09/19 02:39:21;;;;;;;2.03;1.20;;;;;;;11.62;100.00;148961.38;5073765;28;20632;-59
2022/09/19 02:41:56;;;;;;;2.97;1.50;;;;;;;11.55;100.00;148942.38;5073768;28;20273;-60
2022/09/19 02:44:33;;;;;;;3.33;1.27;;;;;;;11.35;100.00;148894.31;5073481;28;20192;-58
2022/09/19 02:47:09;;;;;;;1.10;1.00;;;;;;;11.35;100.00;148894.31;5073689;28;20674;-60
2022/09/19 02:49:44;;;;;;;1.60;1.43;;;;;;;11.29;100.00;148879.13;5073599;28;20181;-60
2022/09/19 02:52:17;;;;;;;4.33;1.77;;;;;;;11.15;100.00;148842.47;5073679;28;20638;-59
2022/09/19 02:54:48;;;;;;;3.30;1.57;;;;;;;11.26;100.00;144949.59;5073161;28;20189;-60
2022/09/19 02:57:19;;;;;;;2.43;1.30;;;;;;;11.21;100.00;131200.31;5073498;28;20557;-60
2022/09/19 02:59:50;;;;;;;3.83;1.20;;;;;;;11.39;100.00;148903.16;5073313;28;20266;-59
2022/09/19 03:02:20;;;;;;;1.87;1.20;;;;;;;11.44;100.00;148917.09;5073464;28;20536;-60
2022/09/19 03:04:53;;;;;;;1.23;1.13;;;;;;;11.37;100.00;148899.34;5073351;28;20557;-59
2022/09/19 03:07:27;;;;;;;2.10;1.47;;;;;;;11.59;100.00;148952.50;5073567;28;20550;-61
2022/09/19 03:10:00;;;;;;;1.10;1.10;;;;;;;11.66;100.00;148971.50;5073028;28;20185;-59
2022/09/19 03:12:37;;;;;;;1.00;1.00;;;;;;;11.61;100.00;148958.84;5072900;28;20185;-60
2022/09/19 03:15:07;;;;;;;2.97;1.17;;;;;;;11.70;100.00;148981.63;5072799;28;20192;-59
2022/09/19 03:17:43;;;;;;;1.77;1.67;;;;;;;11.68;100.00;148975.25;5072959;28;20236;-60
2022/09/19 03:20:11;;;;;;;2.70;1.20;;;;;;;11.69;100.00;148977.81;5072678;28;20200;-62
2022/09/19 03:22:39;;;;;;;1.07;1.07;;;;;;;11.66;100.00;148971.50;5072922;28;20647;-58
2022/09/19 03:25:08;;;;;;;1.10;1.10;;;;;;;11.72;100.00;148986.69;5072631;28;20242;-60
2022/09/19 03:27:36;;;;;;;3.00;0.97;;;;;;;11.65;100.00;148967.69;5072494;28;20189;-60
2022/09/19 03:30:09;;;;;;;1.27;1.17;;;;;;;11.59;100.00;148952.50;5072594;28;20275;-60
2022/09/19 03:32:36;;;;;;;1.63;0.70;;;;;;;11.78;100.00;149000.63;5072503;28;20181;-59
2022/09/19 03:35:04;;;;;;;0.80;0.70;;;;;;;11.71;100.00;148984.13;5072742;28;20188;-60
2022/09/19 03:37:32;;;;;;;1.40;0.77;;;;;;;11.88;100.00;149025.97;5072393;28;20276;-60
2022/09/19 03:39:59;;;;;;;0.90;0.90;;;;;;;11.89;100.00;149028.44;5072545;28;20560;-60
2022/09/19 03:42:26;;;;;;;2.90;0.70;;;;;;;12.01;100.00;149058.81;5072338;28;20276;-59
2022/09/19 03:44:53;;;;;;;0.80;0.80;;;;;;;12.11;100.00;149084.16;5072560;28;20568;-60
2022/09/19 03:47:23;;;;;;;1.20;0.90;;;;;;;12.25;100.00;149119.59;5072481;28;20623;-60
2022/09/19 03:49:50;;;;;;;2.73;0.90;;;;;;;12.23;100.00;149114.50;5072167;28;20212;-59
2022/09/19 03:52:17;;;;;;;1.57;0.83;;;;;;;12.32;100.00;149137.31;5072135;28;20263;-60
2022/09/19 03:54:45;;;;;;;3.10;1.10;;;;;;;12.42;100.00;149161.38;5072349;28;20630;-60
2022/09/19 03:57:12;;;;;;;2.47;1.03;;;;;;;12.35;100.00;149144.88;5072036;28;20191;-59
2022/09/19 03:59:41;;;;;;;2.27;0.90;;;;;;;12.46;100.00;149171.50;5071882;28;20185;-59
2022/09/19 04:02:09;;;;;;;4.90;1.30;;;;;;;12.53;100.00;149189.19;5071975;28;20192;-59
2022/09/19 04:04:38;;;;;;;0.80;0.80;;;;;;;12.59;100.00;149203.16;5072042;28;20211;-60
2022/09/19 04:07:06;;;;;;;0.80;0.80;;;;;;;12.50;100.00;149181.63;5071850;28;20188;-60
2022/09/19 04:09:33;;;;;;;0.70;0.70;;;;;;;12.64;100.00;149217.09;5072200;28;20188;-60
2022/09/19 04:12:02;;;;;;;2.73;1.00;;;;;;;12.70;100.00;149230.97;5072244;28;20738;-60
2022/09/19 04:14:29;;;;;;;2.27;1.10;;;;;;;12.70;100.00;149232.25;5071792;28;20184;-59
2022/09/19 04:16:56;;;;;;;1.30;0.90;;;;;;;12.84;100.00;149266.44;5071532;28;20229;-60
2022/09/19 04:19:25;;;;;;;1.13;1.10;;;;;;;12.80;100.00;149256.31;5071265;28;20200;-59
2022/09/19 04:21:56;;;;;;;3.37;1.00;;;;;;;12.93;100.00;149289.25;5071495;28;20205;-60
2022/09/19 04:24:25;;;;;;;0.80;0.80;;;;;;;13.25;100.00;149370.34;5071642;28;20192;-60
2022/09/19 04:26:53;;;;;;;0.70;0.70;;;;;;;13.56;100.00;149446.34;5071882;28;20189;-60
2022/09/19 04:29:20;;;;;;;1.20;0.63;;;;;;;13.93;100.00;149538.84;5071938;28;20195;-59
2022/09/19 04:31:47;;;;;;;0.70;0.70;;;;;;;14.06;100.00;149571.81;5071770;28;20177;-51
2022/09/19 04:34:14;;;;;;;4.27;1.30;;;;;;;14.56;100.00;149697.34;5072179;28;20191;-50
2022/09/19 04:36:41;;;;;;;3.13;1.40;;;;;;;15.11;100.00;149835.59;5072619;28;20188;-49
2022/09/19 04:39:11;;;;;;;1.20;1.10;;;;;;;15.66;100.00;149973.94;5071954;28;20188;-53
2022/09/19 04:41:38;;;;;;;2.70;1.33;;;;;;;15.74;100.00;149994.25;5071435;28;20216;-57
2022/09/19 04:44:10;;;;;;;1.87;1.27;;;;;;;15.62;100.00;149963.78;5071377;28;20291;-61
2022/09/19 04:46:41;;;;;;;2.30;1.53;;;;;;;15.66;100.00;149972.72;5071552;28;20185;-60
2022/09/19 04:49:08;;;;;;;2.20;1.13;;;;;;;16.55;100.00;150197.38;5071459;28;20189;-59
2022/09/19 04:51:35;;;;;;;3.10;2.87;;;;;;;16.35;100.00;150146.59;5071830;28;20555;-60
2022/09/19 04:54:02;;;;;;;7.00;1.60;;;;;;;16.91;100.00;150287.59;5071629;28;20185;-61
2022/09/19 04:56:30;;;;;;;10.93;3.27;;;;;;;17.13;100.00;150343.50;5071655;28;20191;-60
2022/09/19 04:58:58;;;;;;;5.30;3.17;;;;;;;17.20;100.00;150360.00;5071703;28;20189;-61
2022/09/19 05:01:26;;;;;;;7.23;6.40;;;;;;;17.54;100.00;150445.16;5071155;28;20205;-59
2022/09/19 05:03:53;;;;;;;8.27;6.87;;;;;;;17.66;100.00;150476.97;5071506;28;20185;-60
2022/09/19 05:06:20;;;;;;;8.53;4.30;;;;;;;17.95;100.00;150548.16;5071170;28;20227;-59
2022/09/19 05:08:47;;;;;;;8.30;5.03;;;;;;;18.90;100.00;150788.53;5071535;28;20188;-59
2022/09/19 05:11:18;;;;;;;11.83;7.43;;;;;;;20.03;97.08;151072.34;5071458;28;20181;-59
2022/09/19 05:13:47;;;;;;;39.57;17.17;;;;;;;20.38;93.44;151161.56;5071011;28;20188;-60
2022/09/19 05:16:13;;;;;;;56.93;22.73;;;;;;;20.70;90.11;151240.53;5071204;28;20203;-60
2022/09/19 05:18:41;;;;;;;22.10;12.13;;;;;;;20.47;89.79;151184.47;5071030;28;20746;-61
2022/09/19 05:21:12;;;;;;;13.23;9.43;;;;;;;20.82;89.06;151272.38;5071152;28;20204;-60
2022/09/19 05:23:39;;;;;;;6.28;5.68;;;;;;;20.92;89.19;151296.53;5070181;28;20203;-61
2022/09/19 05:26:08;;;;;;;6.75;5.07;;;;;;;21.03;88.76;151323.31;5071819;28;20181;-60
2022/09/19 05:28:38;;;;;;;4.93;4.50;;;;;;;20.79;89.96;151263.47;5071084;28;20227;-60
2022/09/19 05:31:09;;;;;;;10.00;3.38;;;;;;;21.29;85.69;151390.91;5071488;28;20192;-62
2022/09/19 05:33:36;;;;;;;4.35;3.10;;;;;;;21.16;85.43;151357.78;5074682;28;20189;-60
2022/09/19 05:36:04;;;;;;;6.57;3.33;;;;;;;20.84;89.03;151276.16;5074749;28;20242;-60
2022/09/19 05:38:33;;;;;;;4.93;3.90;;;;;;;20.58;94.75;151209.97;5074758;28;20207;-60
2022/09/19 05:41:01;;;;;;;8.17;3.43;;;;;;;20.90;91.85;151291.47;5074706;28;20216;-61
2022/09/19 05:43:30;;;;;;;4.18;3.05;;;;;;;21.33;86.31;151401.09;5074897;28;20635;-60
2022/09/19 05:45:58;;;;;;;4.40;1.70;;;;;;;21.35;81.30;151406.16;5074014;28;20189;-60
2022/09/19 05:48:27;;;;;;;1.73;1.37;;;;;;;21.34;79.45;151403.63;5074884;28;20185;-60
2022/09/19 05:50:54;;;;;;;1.58;1.48;;;;;;;21.65;76.68;151480.09;5074662;28;20181;-60
2022/09/19 05:56:08;;;;;;;4.95;1.23;;;;;;;20.72;81.32;151245.59;5074476;28;20179;-62
2022/09/19 05:58:36;;;;;;;7.15;1.55;;;;;;;20.91;80.42;151294.03;5074592;28;20185;-63
2022/09/19 06:01:07;;;;;;;1.35;1.25;;;;;;;20.70;81.92;151241.81;5074236;28;20204;-60
2022/09/19 06:03:38;;;;;;;2.45;2.10;;;;;;;20.80;85.91;151267.25;5074548;28;20199;-61
2022/09/19 06:06:11;;;;;;;7.28;3.40;;;;;;;20.95;85.86;151305.50;5074615;28;20180;-61
2022/09/19 06:08:39;;;;;;;7.70;3.22;;;;;;;20.82;87.08;151272.38;5072986;28;20274;-61
2022/09/19 06:11:06;;;;;;;3.10;2.17;;;;;;;20.89;85.34;151288.91;5074241;28;20192;-62
2022/09/19 06:16:13;;;;;;;2.58;2.45;;;;;;;21.25;82.28;151380.72;5074202;28;20192;-62
2022/09/19 06:18:42;;;;;;;5.85;2.70;;;;;;;21.36;83.67;151408.72;5074190;28;20236;-62
2022/09/19 06:21:09;;;;;;;4.45;2.45;;;;;;;21.48;80.78;151436.75;5074398;28;20315;-64
2022/09/19 06:23:36;;;;;;;4.35;1.90;;;;;;;22.32;77.12;151650.97;5073895;28;20204;-63
2022/09/19 06:26:03;;;;;;;7.60;1.75;;;;;;;22.85;74.79;151783.66;5074006;28;20303;-62
2022/09/19 06:28:30;;;;;;;3.67;1.40;;;;;;;23.19;68.63;151870.41;5073475;28;20243;-62
2022/09/19 06:31:03;;;;;;;2.45;1.20;;;;;;;23.73;65.10;152004.44;5073329;28;20185;-61
2022/09/19 06:33:30;;;;;;;2.22;0.95;;;;;;;23.90;64.21;152049.13;5072323;28;20184;-62
2022/09/19 06:35:59;;;;;;;1.10;1.00;;;;;;;24.26;63.65;152138.56;5073495;28;20196;-61
2022/09/19 06:38:27;;;;;;;3.30;0.80;;;;;;;24.46;61.15;152190.91;5073885;28;20185;-62
2022/09/19 06:40:54;;;;;;;2.83;1.13;;;;;;;24.88;57.00;152295.66;5073647;28;20671;-61
2022/09/19 06:43:21;;;;;;;1.30;0.47;;;;;;;24.72;52.20;152256.03;5072430;28;20232;-60
2022/09/19 06:45:48;;;;;;;2.05;0.50;;;;;;;24.32;52.16;152153.84;5072214;28;20222;-62
2022/09/19 06:48:15;;;;;;;3.97;0.70;;;;;;;24.70;51.43;152250.91;5073187;28;20304;-63
2022/09/19 06:50:46;;;;;;;1.30;0.50;;;;;;;25.05;50.50;152339.09;5073457;28;20239;-61
2022/09/19 06:53:28;;;;;;;0.50;0.50;;;;;;;24.67;50.10;152243.25;5072938;28;20195;-61
2022/09/19 06:55:56;;;;;;;0.95;0.60;;;;;;;24.57;50.33;152218.97;5053259;28;20568;-61
2022/09/19 06:58:24;;;;;;;1.92;0.30;;;;;;;24.38;50.43;152169.19;5053063;28;20182;-61
2022/09/19 07:00:51;;;;;;;0.35;0.35;;;;;;;24.73;49.69;152258.59;5052008;28;20309;-57
2022/09/19 07:03:18;;;;;;;0.52;0.30;;;;;;;24.46;50.07;152189.63;5053310;28;20537;-58
2022/09/19 07:05:47;;;;;;;39.72;34.28;;;;;;;24.37;50.02;152166.63;5053364;28;20196;-59
2022/09/19 07:08:15;;;;;;;0.95;0.80;;;;;;;23.70;51.23;151998.09;5053263;28;20185;-59
2022/09/19 07:10:44;;;;;;;0.60;0.60;;;;;;;23.55;50.75;151961.03;5053262;28;20182;-57
2022/09/19 07:13:16;;;;;;;0.50;0.50;;;;;;;23.63;51.20;151980.22;5085100;28;20221;-58
2022/09/19 07:15:43;;;;;;;1.55;0.30;;;;;;;23.84;49.24;152033.84;5052993;28;20190;-61
2022/09/19 07:18:12;;;;;;;1.30;0.30;;;;;;;23.70;48.86;151998.09;5052549;28;20587;-60
2022/09/19 07:20:40;;;;;;;0.63;0.63;;;;;;;23.70;47.91;151996.81;5053186;28;20588;-58
2022/09/19 07:23:13;;;;;;;2.15;0.68;;;;;;;23.51;48.04;151949.56;5053014;28;20231;-58
2022/09/19 07:25:40;;;;;;;1.05;0.30;;;;;;;23.76;48.17;152012.13;5052870;28;20648;-59
2022/09/19 07:28:12;;;;;;;1.05;0.20;;;;;;;23.62;47.41;151978.94;5052710;28;20231;-58
2022/09/19 07:30:43;;;;;;;0.98;0.20;;;;;;;23.73;46.69;152005.72;5052962;28;20551;-58
2022/09/19 07:33:12;;;;;;;0.77;0.30;;;;;;;23.54;46.25;151957.25;5053162;28;20301;-59
2022/09/19 07:35:40;;;;;;;0.35;0.20;;;;;;;23.52;45.71;151952.13;5052672;28;20239;-58
2022/09/19 07:38:09;;;;;;;0.60;0.60;;;;;;;23.67;45.97;151990.44;5052171;28;20185;-59
2022/09/19 07:40:46;;;;;;;0.70;0.70;;;;;;;23.40;46.80;151921.44;5052761;28;20190;-59
2022/09/19 07:43:18;;;;;;;1.27;0.50;;;;;;;23.29;45.39;151893.41;5052242;28;20189;-58
2022/09/19 07:45:47;;;;;;;0.25;0.25;;;;;;;23.45;45.12;151934.28;5053060;28;20188;-58
2022/09/19 07:48:14;;;;;;;1.30;0.30;;;;;;;23.55;44.84;151959.81;5052613;28;20556;-59
2022/09/19 07:50:43;;;;;;;0.30;0.30;;;;;;;23.50;44.42;151948.31;5052352;28;20186;-58
2022/09/19 07:53:13;;;;;;;0.82;0.82;;;;;;;23.61;45.57;151975.09;5057793;28;20247;-59
2022/09/19 07:55:41;;;;;;;0.65;0.55;;;;;;;23.68;46.58;151994.22;5070456;28;20200;-59
2022/09/19 07:58:10;;;;;;;2.90;0.68;;;;;;;23.73;46.04;152005.72;5072031;28;20296;-58
2022/09/19 08:00:39;;;;;;;1.33;0.45;;;;;;;23.83;44.00;152030.00;5072199;28;20261;-58
2022/09/19 08:03:09;;;;;;;0.68;0.30;;;;;;;24.06;43.51;152088.72;5065436;28;20294;-58
2022/09/19 08:05:39;;;;;;;0.40;0.40;;;;;;;24.20;43.46;152124.50;5071753;28;20203;-59
2022/09/19 08:08:07;;;;;;;0.63;0.50;;;;;;;24.15;44.59;152111.72;5072081;28;20201;-59
2022/09/19 08:10:34;;;;;;;0.40;0.30;;;;;;;24.34;42.48;152158.97;5070385;28;20201;-58
2022/09/19 08:13:02;;;;;;;0.30;0.30;;;;;;;24.38;41.30;152169.19;5060194;28;20215;-60
2022/09/19 08:15:30;;;;;;;4.00;2.80;;;;;;;24.84;43.60;152286.69;5065328;28;20200;-55
2022/09/19 08:18:00;;;;;;;0.30;0.30;;;;;;;24.77;42.30;152268.81;5071572;28;20702;-58
2022/09/19 08:20:28;;;;;;;0.30;0.30;;;;;;;24.79;41.45;152273.91;5071487;28;20647;-58
2022/09/19 08:22:57;;;;;;;0.95;0.40;;;;;;;24.74;42.25;152261.13;5072084;28;20220;-59
2022/09/19 08:25:24;;;;;;;0.95;0.40;;;;;;;24.69;42.97;152248.38;5072114;28;20604;-59
2022/09/19 08:27:51;;;;;;;0.60;0.50;;;;;;;24.60;43.39;152225.38;5071847;28;20188;-59
2022/09/19 08:30:19;;;;;;;1.65;0.35;;;;;;;24.56;42.65;152215.19;5072115;28;20181;-59
2022/09/19 08:32:46;;;;;;;1.83;0.30;;;;;;;25.15;38.92;152363.38;5071667;28;20638;-59
2022/09/19 08:35:16;;;;;;;0.22;0.20;;;;;;;25.26;38.62;152391.47;5071594;28;20607;-59
2022/09/19 08:37:43;;;;;;;0.22;0.20;;;;;;;24.98;40.15;152322.50;5071259;28;20189;-59
2022/09/19 08:40:19;;;;;;;1.88;0.50;;;;;;;25.28;42.25;152396.59;5071506;28;20623;-60
2022/09/19 08:42:57;;;;;;;0.77;0.50;;;;;;;25.00;43.50;152326.31;5071518;28;20683;-59
2022/09/19 08:45:33;;;;;;;1.25;0.60;;;;;;;25.38;42.67;152422.13;5071417;28;20686;-60
2022/09/19 08:48:06;;;;;;;0.52;0.52;;;;;;;25.30;42.85;152401.69;5071661;28;20215;-59
2022/09/19 08:50:40;;;;;;;0.77;0.77;;;;;;;25.47;42.96;152445.13;5071420;28;20242;-59
2022/09/19 08:53:14;;;;;;;0.55;0.40;;;;;;;25.51;40.76;152455.34;5071554;28;20234;-59
2022/09/19 08:55:42;;;;;;;1.17;0.50;;;;;;;25.83;39.84;152535.94;5071389;28;20204;-60
2022/09/19 08:58:16;;;;;;;0.75;0.63;;;;;;;25.55;40.49;152465.63;5069958;28;20189;-59
2022/09/19 09:00:47;;;;;;;0.35;0.30;;;;;;;25.66;40.24;152493.78;5071432;28;20220;-59
2022/09/19 09:03:16;;;;;;;0.60;0.38;;;;;;;25.82;40.45;152534.66;5071756;28;20211;-60
2022/09/19 09:05:55;;;;;;;1.70;0.60;;;;;;;26.20;40.73;152629.28;5055252;28;20242;-60
2022/09/19 09:08:34;;;;;;;0.35;0.20;;;;;;;26.53;37.57;152712.38;5060111;28;20234;-60
2022/09/19 09:11:12;;;;;;;1.00;0.40;;;;;;;26.69;38.46;152753.34;5095988;28;20193;-59
2022/09/19 09:13:49;;;;;;;0.40;0.40;;;;;;;27.96;36.18;153074.56;5072653;28;20282;-61
2022/09/19 09:16:24;;;;;;;3.22;0.35;;;;;;;28.42;35.34;153191.06;5055758;28;20536;-61
2022/09/19 09:19:03;;;;;;;0.30;0.30;;;;;;;28.33;35.00;153169.31;5067639;28;20224;-61
2022/09/19 09:21:42;;;;;;;1.48;0.30;;;;;;;29.61;33.59;153493.41;5055041;28;20320;-61
2022/09/19 09:24:16;;;;;;;0.52;0.30;;;;;;;29.76;31.47;153530.56;5069163;28;20207;-62
2022/09/19 09:26:47;;;;;;;1.33;0.40;;;;;;;29.99;32.57;153588.28;5074785;28;20516;-61
2022/09/19 09:29:23;;;;;;;1.55;0.40;;;;;;;29.62;31.54;153494.72;5057494;28;20209;-61
2022/09/19 09:31:56;;;;;;;1.85;0.50;;;;;;;29.88;32.41;153561.34;5054781;28;20185;-60
2022/09/19 09:34:28;;;;;;;0.30;0.30;;;;;;;29.80;32.25;153540.78;5070638;28;20204;-61
2022/09/19 09:37:02;;;;;;;0.22;0.20;;;;;;;30.14;31.21;153626.69;5074704;28;20197;-61
2022/09/19 09:39:49;;;;;;;0.40;0.40;;;;;;;30.00;30.30;153592.13;5074903;28;20220;-62
2022/09/19 09:42:21;;;;;;;0.43;0.30;;;;;;;29.60;31.39;153490.84;5070081;28;20622;-58
2022/09/19 09:44:59;;;;;;;0.45;0.30;;;;;;;29.01;31.50;153340.94;5054922;28;20201;-63
2022/09/19 09:47:43;;;;;;;17.73;15.43;;;;;;;29.07;30.94;153356.28;5055193;28;20195;-61
2022/09/19 09:50:43;;;;;;;0.98;0.50;;;;;;;29.02;31.75;153343.50;5054645;28;20258;-62
2022/09/19 09:53:21;;;;;;;0.55;0.55;;;;;;;29.01;30.75;153342.22;5054596;28;20705;-61
2022/09/19 09:56:15;;;;;;;2.17;0.50;;;;;;;28.41;30.78;153189.78;5054232;28;20193;-61
2022/09/19 09:58:52;;;;;;;1.10;1.10;;;;;;;29.30;31.00;153415.25;5060479;28;20204;-61
2022/09/19 10:04:22;;;;;;;0.50;0.50;;;;;;;29.99;30.42;153589.56;5074395;28;20172;-61
2022/09/19 10:06:54;;;;;;;0.95;0.50;;;;;;;30.30;27.92;153669.00;5074287;28;20667;-60
2022/09/19 10:09:28;;;;;;;0.43;0.43;;;;;;;29.77;28.26;153533.13;5074166;28;20188;-61
2022/09/19 10:11:59;;;;;;;0.50;0.50;;;;;;;29.08;29.50;153358.84;5074453;28;20465;-60
2022/09/19 10:14:28;;;;;;;0.90;0.80;;;;;;;29.10;29.51;153364.00;5072851;28;20655;-61
2022/09/19 10:17:00;;;;;;;0.90;0.90;;;;;;;30.04;28.90;153602.38;5073721;28;20586;-61
2022/09/19 10:19:30;;;;;;;0.68;0.68;;;;;;;30.20;29.00;153642.09;5073563;28;20692;-61
2022/09/19 10:21:59;;;;;;;0.98;0.40;;;;;;;30.01;27.70;153593.38;5074523;28;20204;-61
2022/09/19 10:24:47;;;;;;;3.42;0.60;;;;;;;30.27;29.27;153661.31;5073639;28;20195;-61
2022/09/19 10:27:16;;;;;;;2.03;0.80;;;;;;;30.81;28.80;153798.50;5073662;28;20277;-61
2022/09/19 10:29:56;;;;;;;4.03;0.85;;;;;;;30.86;27.68;153810.06;5074115;28;20541;-61
2022/09/19 10:32:24;;;;;;;3.45;0.60;;;;;;;30.34;28.00;153678.00;5073768;28;20249;-62
2022/09/19 10:34:52;;;;;;;1.90;0.32;;;;;;;31.16;27.42;153885.75;5073993;28;20598;-61
2022/09/19 10:37:21;;;;;;;1.55;0.40;;;;;;;31.96;26.22;154088.44;5073965;28;20623;-61
2022/09/19 10:39:50;;;;;;;0.52;0.40;;;;;;;31.92;26.76;154078.19;5073546;28;20192;-61
2022/09/19 10:42:26;;;;;;;0.65;0.40;;;;;;;32.87;24.81;154319.56;5073520;28;20227;-61
2022/09/19 10:44:53;;;;;;;1.38;0.40;;;;;;;31.99;25.06;154097.47;5073671;28;20196;-60
2022/09/19 10:47:20;;;;;;;0.50;0.50;;;;;;;32.13;25.49;154133.41;5073675;28;20188;-61
2022/09/19 10:49:51;;;;;;;0.40;0.40;;;;;;;31.54;25.80;153981.94;5071025;28;20556;-60
2022/09/19 10:52:24;;;;;;;0.50;0.47;;;;;;;33.32;24.42;154433.84;5062523;28;20205;-60
2022/09/19 10:54:53;;;;;;;0.90;0.60;;;;;;;33.96;24.28;154598.28;5063195;28;20291;-61
2022/09/19 10:57:37;;;;;;;0.47;0.47;;;;;;;33.63;23.52;154513.47;5073099;28;20275;-60
2022/09/19 11:00:05;;;;;;;0.50;0.50;;;;;;;33.11;24.02;154381.16;5073367;28;20188;-60
2022/09/19 11:02:33;;;;;;;1.20;0.50;;;;;;;31.92;24.71;154078.19;5073463;28;20209;-61
2022/09/19 11:05:02;;;;;;;5.72;0.47;;;;;;;29.46;26.84;153456.25;5073488;28;20500;-61
2022/09/19 11:07:33;;;;;;;3.33;0.80;;;;;;;28.28;28.53;153156.50;5073309;28;20216;-60
2022/09/19 11:10:09;;;;;;;0.93;0.50;;;;;;;26.68;30.50;152752.06;5069849;28;20192;-60
2022/09/19 11:12:38;;;;;;;0.43;0.40;;;;;;;26.30;31.05;152654.88;5052889;28;20721;-60
2022/09/19 11:15:16;;;;;;;5.45;4.13;;;;;;;25.99;30.90;152576.84;5064160;28;20276;-59
2022/09/19 11:18:01;;;;;;;1.45;0.30;;;;;;;25.69;30.92;152501.44;5072918;28;20316;-60
2022/09/19 11:20:39;;;;;;;0.40;0.40;;;;;;;25.60;30.78;152478.41;5072813;28;20210;-60
2022/09/19 11:23:41;;;;;;;0.22;0.22;;;;;;;25.37;30.39;152419.63;5073034;28;20705;-60
2022/09/19 11:26:22;;;;;;;2.85;0.70;;;;;;;24.41;42.63;152178.13;5072859;28;20508;-60
2022/09/19 11:29:02;;;;;;;3.28;0.60;;;;;;;24.07;49.68;152092.53;5072814;28;20582;-61
2022/09/19 11:31:42;;;;;;;1.58;0.80;;;;;;;23.05;55.29;151834.69;5073080;28;20586;-60
2022/09/19 11:34:16;;;;;;;1.85;0.60;;;;;;;22.31;56.93;151647.16;5072510;28;20203;-61
2022/09/19 11:36:55;;;;;;;5.47;1.10;;;;;;;22.14;59.82;151603.81;5064126;28;20516;-59
2022/09/19 11:39:35;;;;;;;2.05;1.00;;;;;;;21.81;59.19;151520.91;5072126;28;20188;-60
2022/09/19 11:42:18;;;;;;;1.23;0.70;;;;;;;21.84;58.75;151528.53;5072340;28;20294;-59
2022/09/19 11:44:57;;;;;;;0.60;0.60;;;;;;;21.62;61.23;151473.72;5072297;28;20216;-60
2022/09/19 11:47:56;;;;;;;1.83;0.90;;;;;;;21.31;66.70;151394.69;5072403;28;20185;-60
2022/09/19 11:50:39;;;;;;;2.90;0.80;;;;;;;21.29;66.76;151390.91;5085882;28;20572;-60
2022/09/19 11:53:38;;;;;;;0.68;0.60;;;;;;;21.26;69.38;151382.00;5068162;28;20237;-62